Terminal Aerodrome Forecast
Issued by NWS

Home | Current Version | Previous Version | Text Only | Print | Product List | Glossary On
Versions: 1 2 3 4 5 6 7 8 9 10 11 12 13 14 15 16 17 18 19 20 21 22
000
FTUS45 KTFX 301505 AAB
TAFHLN
TAF AMD
KHLN 301505Z 3015/3112 VRB06KT 4SM FU BKN120
     FM301700 28010G20KT 6SM FU VCTS SCT080CB BKN120
      TEMPO 3022/3102 VRB15G40KT
     FM310300 26010KT P6SM SCT050=

USA.gov is the U.S. government's official web portal to all federal, state and local government web resources and services.